createdAt,value
2019-04-28T00:02:15.662Z,76.15
2019-04-28T00:05:21.105Z,75.73
2019-04-28T00:08:25.622Z,75.15
2019-04-28T00:11:31.675Z,74.39
2019-04-28T00:14:36.560Z,74.45
2019-04-28T00:17:41.988Z,72.57
2019-04-28T00:20:46.272Z,71.89
2019-04-28T00:23:53.173Z,72.42
2019-04-28T00:26:59.289Z,71.52
2019-04-28T00:30:07.374Z,70.81
2019-04-28T00:33:11.797Z,70.27
2019-04-28T00:36:16.645Z,71.04
2019-04-28T00:39:22.694Z,70.19
2019-04-28T00:42:27.283Z,68.88
2019-04-28T00:45:31.963Z,69.43
2019-04-28T00:48:36.387Z,70.88
2019-04-28T00:51:41.546Z,70.95
2019-04-28T00:54:47.201Z,70.94
2019-04-28T00:57:51.907Z,69.46
2019-04-28T01:01:07.924Z,70.58
2019-04-28T01:04:12.426Z,69.34
2019-04-28T01:07:16.867Z,71.04
2019-04-28T01:10:22.335Z,72.54
2019-04-28T01:13:26.759Z,72.78
2019-04-28T01:16:36.079Z,71.10
2019-04-28T01:19:54.249Z,72.16
2019-04-28T01:23:00.469Z,71.65
2019-04-28T01:26:05.083Z,72.91
2019-04-28T01:29:09.932Z,71.77
2019-04-28T01:32:32.169Z,72.21
2019-04-28T01:35:37.003Z,70.95
2019-04-28T01:38:41.737Z,72.75
2019-04-28T01:41:46.168Z,70.22
2019-04-28T01:44:50.595Z,70.76
2019-04-28T01:47:55.318Z,70.49
2019-04-28T01:51:00.049Z,71.24
2019-04-28T01:54:04.780Z,72.35
2019-04-28T01:57:10.141Z,72.92
2019-04-28T02:00:23.064Z,73.80
2019-04-28T02:03:21.859Z,74.24
2019-04-28T02:06:26.294Z,73.73
2019-04-28T02:09:30.718Z,74.11
2019-04-28T02:12:35.520Z,73.94
2019-04-28T02:15:40.247Z,74.78
2019-04-28T02:18:44.682Z,75.81
2019-04-28T02:21:51.042Z,75.11
2019-04-28T02:24:55.474Z,75.11
2019-04-28T02:27:59.908Z,74.22
2019-04-28T02:31:04.336Z,72.66
2019-04-28T02:34:11.217Z,72.72
2019-04-28T02:37:15.205Z,72.30
2019-04-28T02:40:20.755Z,70.76
2019-04-28T02:43:25.695Z,70.69
2019-04-28T02:46:30.877Z,71.45
2019-04-28T02:49:55.630Z,72.41
2019-04-28T02:53:02.206Z,73.38
2019-04-28T02:56:06.812Z,73.11
2019-04-28T02:59:11.255Z,73.42
2019-04-28T03:02:15.986Z,74.30
2019-04-28T03:05:21.659Z,74.35
2019-04-28T03:08:26.445Z,75.06
2019-04-28T03:11:31.572Z,76.03
2019-04-28T03:14:36.072Z,76.10
2019-04-28T03:17:40.940Z,75.46
2019-04-28T03:20:45.582Z,75.63
2019-04-28T03:23:51.614Z,75.14
2019-04-28T03:27:03.519Z,75.25
2019-04-28T03:30:25.676Z,75.62
2019-04-28T03:33:34.111Z,76.05
2019-04-28T03:36:37.711Z,76.26
2019-04-28T03:39:42.149Z,76.84
2019-04-28T03:42:46.877Z,76.97
2019-04-28T03:45:53.252Z,76.44
2019-04-28T03:48:57.689Z,76.41
2019-04-28T03:52:03.614Z,76.40
2019-04-28T03:55:08.461Z,74.67
2019-04-28T03:58:13.401Z,74.69
2019-04-28T04:01:20.438Z,73.84
2019-04-28T04:04:24.287Z,75.01
2019-04-28T04:07:31.106Z,74.75
2019-04-28T04:10:40.613Z,74.77
2019-04-28T04:13:51.352Z,74.82
2019-04-28T04:17:02.729Z,75.32
2019-04-28T04:20:11.007Z,75.83
2019-04-28T04:23:14.759Z,75.26
2019-04-28T04:26:21.288Z,75.66
2019-04-28T04:29:25.350Z,75.83
2019-04-28T04:32:30.480Z,75.78
2019-04-28T04:35:36.586Z,76.33
2019-04-28T04:38:45.827Z,75.80
2019-04-28T04:41:47.487Z,76.17
2019-04-28T04:44:51.929Z,76.55
2019-04-28T04:47:56.341Z,76.97
2019-04-28T04:51:00.836Z,75.90
2019-04-28T04:54:05.283Z,75.72
2019-04-28T04:57:11.077Z,76.00
2019-04-28T05:00:18.016Z,75.81
2019-04-28T05:03:33.188Z,75.89
2019-04-28T05:06:39.952Z,75.95
2019-04-28T05:09:45.723Z,75.84
2019-04-28T05:12:51.820Z,75.40
2019-04-28T05:15:56.722Z,74.19
2019-04-28T05:19:01.146Z,74.43
2019-04-28T05:22:06.218Z,74.16
2019-04-28T05:25:15.322Z,74.43
2019-04-28T05:28:20.047Z,74.45
2019-04-28T05:31:24.800Z,73.47
2019-04-28T05:34:29.731Z,73.96
2019-04-28T05:37:34.319Z,73.26
2019-04-28T05:40:39.870Z,74.17
2019-04-28T05:43:44.725Z,75.11
2019-04-28T05:46:50.643Z,75.00
2019-04-28T05:50:00.255Z,73.86
2019-04-28T05:53:06.466Z,72.45
2019-04-28T05:56:15.106Z,72.04
2019-04-28T05:59:23.832Z,70.88
2019-04-28T06:02:32.983Z,69.62
2019-04-28T06:05:46.104Z,68.98
2019-04-28T06:09:04.126Z,69.78
2019-04-28T06:12:10.516Z,68.80
2019-04-28T06:15:14.954Z,67.19
2019-04-28T06:18:20.575Z,68.46
2019-04-28T06:21:25.189Z,66.75
2019-04-28T06:24:29.623Z,60.71
2019-04-28T06:27:34.375Z,57.89
2019-04-28T06:30:38.829Z,55.81
2019-04-28T06:33:44.566Z,49.94
2019-04-28T06:36:49.102Z,50.91
2019-04-28T06:39:53.536Z,49.53
2019-04-28T06:42:58.258Z,48.08
2019-04-28T06:46:02.681Z,48.03
2019-04-28T06:49:07.120Z,51.48
2019-04-28T06:52:11.566Z,53.15
2019-04-28T06:55:16.068Z,52.87
2019-04-28T06:58:20.764Z,53.15
2019-04-28T07:01:25.253Z,54.44
2019-04-28T07:04:29.690Z,54.68
2019-04-28T07:07:34.136Z,52.97
2019-04-28T07:10:39.011Z,53.27
2019-04-28T07:13:43.701Z,55.12
2019-04-28T07:16:48.433Z,55.76
2019-04-28T07:19:54.519Z,57.49
2019-04-28T07:22:58.964Z,60.18
2019-04-28T07:26:03.645Z,59.69
2019-04-28T07:29:08.084Z,60.10
2019-04-28T07:32:12.520Z,59.75
2019-04-28T07:35:16.954Z,60.07
2019-04-28T07:38:21.648Z,61.87
2019-04-28T07:41:26.079Z,61.24
2019-04-28T07:44:30.525Z,59.76
2019-04-28T07:47:35.232Z,58.70
2019-04-28T07:50:39.665Z,55.46
2019-04-28T07:53:45.744Z,55.33
2019-04-28T07:56:50.187Z,56.43
2019-04-28T07:59:54.630Z,56.58
2019-04-28T08:02:59.595Z,56.60
2019-04-28T08:06:04.037Z,58.72
2019-04-28T08:09:10.494Z,61.53
2019-04-28T08:12:14.933Z,65.50
2019-04-28T08:15:19.378Z,67.08
2019-04-28T08:18:23.810Z,66.54
2019-04-28T08:21:28.493Z,66.66
2019-04-28T08:24:32.937Z,65.93
2019-04-28T08:27:37.383Z,65.06
2019-04-28T08:30:41.824Z,62.54
2019-04-28T08:34:01.857Z,63.40
2019-04-28T08:36:57.471Z,59.07
2019-04-28T08:40:01.919Z,59.48
2019-04-28T08:43:06.440Z,60.68
2019-04-28T08:46:11.151Z,56.22
2019-04-28T08:49:15.887Z,57.72
2019-04-28T08:52:20.613Z,57.00
2019-04-28T08:55:25.058Z,57.46
2019-04-28T08:58:29.507Z,56.18
2019-04-28T09:01:33.942Z,54.53
2019-04-28T09:04:38.720Z,58.41
2019-04-28T09:07:43.155Z,59.01
2019-04-28T09:10:47.877Z,60.26
2019-04-28T09:13:52.604Z,62.16
2019-04-28T09:16:57.333Z,59.17
2019-04-28T09:20:02.067Z,60.74
2019-04-28T09:23:06.505Z,59.52
2019-04-28T09:26:10.949Z,58.73
2019-04-28T09:29:15.396Z,57.87
2019-04-28T09:32:20.170Z,59.25
2019-04-28T09:35:24.620Z,58.18
2019-04-28T09:38:29.056Z,55.74
2019-04-28T09:41:34.774Z,56.55
2019-04-28T09:44:39.218Z,53.02
2019-04-28T09:47:43.926Z,54.81
2019-04-28T09:50:48.369Z,50.04
2019-04-28T09:53:52.804Z,48.81
2019-04-28T09:56:57.310Z,48.80
2019-04-28T10:00:01.765Z,52.58
2019-04-28T10:03:06.459Z,51.60
2019-04-28T10:06:11.180Z,55.02
2019-04-28T10:09:15.913Z,57.29
2019-04-28T10:12:26.870Z,57.20
2019-04-28T10:15:26.700Z,58.63
2019-04-28T10:18:31.375Z,58.80
2019-04-28T10:21:36.991Z,60.01
2019-04-28T10:24:41.719Z,62.14
2019-04-28T10:27:46.514Z,62.63
2019-04-28T10:30:50.965Z,61.82
2019-04-28T10:33:57.040Z,61.71
2019-04-28T10:37:01.770Z,60.11
2019-04-28T10:40:11.317Z,58.96
2019-04-28T10:43:15.752Z,64.91
2019-04-28T10:46:20.197Z,63.75
2019-04-28T10:49:25.306Z,65.24
2019-04-28T10:52:29.745Z,61.64
2019-04-28T10:55:34.188Z,61.77
2019-04-28T10:58:39.093Z,60.93
2019-04-28T11:01:43.821Z,62.28
2019-04-28T11:04:50.181Z,61.67
2019-04-28T11:07:56.175Z,61.42
2019-04-28T11:11:02.302Z,63.43
2019-04-28T11:14:06.740Z,64.86
2019-04-28T11:17:11.456Z,63.75
2019-04-28T11:20:16.039Z,63.83
2019-04-28T11:23:23.175Z,60.83
2019-04-28T11:26:26.982Z,61.08
2019-04-28T11:29:31.418Z,60.46
2019-04-28T11:32:36.754Z,58.12
2019-04-28T11:35:42.865Z,58.61
2019-04-28T11:38:47.299Z,61.01
2019-04-28T11:41:52.072Z,60.00
2019-04-28T11:44:56.804Z,59.00
2019-04-28T11:48:01.242Z,59.58
2019-04-28T11:51:06.061Z,59.75
2019-04-28T11:54:10.496Z,61.35
2019-04-28T11:57:14.937Z,61.79
2019-04-28T12:00:21.247Z,62.98
2019-04-28T12:03:25.716Z,63.97
2019-04-28T12:06:30.429Z,63.27
2019-04-28T12:09:45.446Z,62.39
2019-04-28T12:12:49.923Z,64.32
2019-04-28T12:15:58.959Z,61.80
2019-04-28T12:19:05.043Z,62.61
2019-04-28T12:22:09.753Z,63.01
2019-04-28T12:25:15.191Z,60.48
2019-04-28T12:28:19.925Z,60.91
2019-04-28T12:31:24.698Z,62.21
2019-04-28T12:34:29.123Z,61.10
2019-04-28T12:37:33.575Z,59.43
2019-04-28T12:40:38.339Z,60.24
2019-04-28T12:43:42.786Z,59.75
2019-04-28T12:46:47.241Z,58.60
2019-04-28T12:49:53.656Z,56.63
2019-04-28T12:52:58.096Z,54.61
2019-04-28T12:56:02.611Z,53.33
2019-04-28T12:59:14.333Z,51.36
2019-04-28T13:02:23.395Z,49.44
2019-04-28T13:05:28.178Z,52.04
2019-04-28T13:08:32.630Z,51.38
2019-04-28T13:11:37.318Z,50.24
2019-04-28T13:14:42.049Z,46.15
2019-04-28T13:17:46.493Z,45.23
2019-04-28T13:20:51.203Z,46.89
2019-04-28T13:23:55.648Z,44.34
2019-04-28T13:27:00.357Z,45.14
2019-04-28T13:30:07.441Z,45.27
2019-04-28T13:33:11.891Z,44.25
2019-04-28T13:36:16.706Z,44.86
2019-04-28T13:39:31.982Z,44.48
2019-04-28T13:42:36.711Z,43.31
2019-04-28T13:45:41.439Z,44.12
2019-04-28T13:48:45.914Z,42.24
2019-04-28T13:51:50.313Z,44.57
2019-04-28T13:55:05.193Z,45.64
2019-04-28T13:58:09.649Z,43.06
2019-04-28T14:01:21.367Z,42.07
2019-04-28T14:04:36.447Z,42.87
2019-04-28T14:07:40.875Z,40.55
2019-04-28T14:10:45.309Z,37.70
2019-04-28T14:13:50.036Z,37.23
2019-04-28T14:16:54.800Z,39.95
2019-04-28T14:19:59.495Z,38.09
2019-04-28T14:23:03.987Z,40.76
2019-04-28T14:26:08.747Z,43.36
2019-04-28T14:29:13.188Z,45.75
2019-04-28T14:32:17.626Z,45.81
2019-04-28T14:35:22.149Z,40.67
2019-04-28T14:38:27.748Z,41.17
2019-04-28T14:41:32.500Z,40.37
2019-04-28T14:44:36.999Z,39.41
2019-04-28T14:47:41.669Z,37.98
2019-04-28T14:50:46.101Z,39.48
2019-04-28T14:53:50.918Z,39.85
2019-04-28T14:56:55.644Z,40.19
2019-04-28T15:00:00.092Z,39.27
2019-04-28T15:03:06.438Z,37.73
2019-04-28T15:06:12.519Z,36.95
2019-04-28T15:09:25.176Z,36.16
2019-04-28T15:12:30.031Z,37.25
2019-04-28T15:15:34.479Z,36.18
2019-04-28T15:18:38.901Z,37.02
2019-04-28T15:21:43.346Z,39.26
2019-04-28T15:24:47.804Z,39.68
2019-04-28T15:27:52.576Z,39.97
2019-04-28T15:30:57.014Z,40.38
2019-04-28T15:34:01.452Z,41.49
2019-04-28T15:37:10.137Z,42.37
2019-04-28T15:40:12.272Z,43.98
2019-04-28T15:43:16.710Z,44.44
2019-04-28T15:46:21.152Z,44.67
2019-04-28T15:49:25.599Z,45.98
2019-04-28T15:52:30.035Z,46.27
2019-04-28T15:55:36.382Z,45.48
2019-04-28T15:58:41.115Z,46.64
2019-04-28T16:01:46.037Z,46.43
2019-04-28T16:04:50.778Z,45.10
2019-04-28T16:07:55.209Z,47.76
2019-04-28T16:10:59.648Z,46.54
2019-04-28T16:14:04.085Z,45.66
2019-04-28T16:17:08.527Z,46.24
2019-04-28T16:20:13.303Z,47.87
2019-04-28T16:23:17.741Z,46.17
2019-04-28T16:26:23.032Z,47.89
2019-04-28T16:29:27.911Z,47.51
2019-04-28T16:32:32.636Z,47.72
2019-04-28T16:35:37.119Z,47.96
2019-04-28T16:38:41.793Z,47.57
2019-04-28T16:41:46.240Z,48.90
2019-04-28T16:44:50.948Z,51.48
2019-04-28T16:47:55.683Z,50.32
2019-04-28T16:51:00.123Z,50.30
2019-04-28T16:54:04.624Z,51.02
2019-04-28T16:57:10.785Z,51.61
2019-04-28T17:00:20.050Z,52.39
2019-04-28T17:03:24.759Z,54.86
2019-04-28T17:06:29.210Z,54.71
2019-04-28T17:09:33.910Z,54.86
2019-04-28T17:12:38.353Z,54.64
2019-04-28T17:15:43.062Z,56.33
2019-04-28T17:18:47.499Z,53.90
2019-04-28T17:21:51.940Z,58.32
2019-04-28T17:24:56.375Z,58.99
2019-04-28T17:28:00.823Z,58.59
2019-04-28T17:31:06.339Z,58.32
2019-04-28T17:34:10.848Z,58.24
2019-04-28T17:37:16.259Z,57.05
2019-04-28T17:40:22.331Z,54.53
2019-04-28T17:43:26.782Z,55.52
2019-04-28T17:46:31.227Z,55.44
2019-04-28T17:49:37.667Z,55.42
2019-04-28T17:52:42.111Z,55.20
2019-04-28T17:55:46.544Z,55.44
2019-04-28T17:58:50.993Z,55.26
2019-04-28T18:02:04.248Z,56.06
2019-04-28T18:05:26.398Z,57.91
2019-04-28T18:08:32.808Z,57.51
2019-04-28T18:11:37.421Z,57.81
2019-04-28T18:14:43.778Z,56.59
2019-04-28T18:17:50.150Z,58.04
2019-04-28T18:20:54.872Z,58.30
2019-04-28T18:23:59.605Z,59.26
2019-04-28T18:27:04.049Z,60.37
2019-04-28T18:30:08.549Z,60.95
2019-04-28T18:33:31.023Z,60.41
2019-04-28T18:36:37.103Z,61.94
2019-04-28T18:39:59.608Z,61.37
2019-04-28T18:43:05.692Z,62.38
2019-04-28T18:46:10.403Z,62.21
2019-04-28T18:49:14.848Z,59.69
2019-04-28T18:52:19.320Z,60.65
2019-04-28T18:55:23.757Z,61.96
2019-04-28T18:58:28.506Z,62.93
2019-04-28T19:01:37.160Z,62.92
2019-04-28T19:04:41.604Z,63.56
2019-04-28T19:07:48.759Z,62.63
2019-04-28T19:11:10.062Z,62.60
2019-04-28T19:14:16.142Z,62.13
2019-04-28T19:17:22.201Z,61.77
2019-04-28T19:20:27.013Z,62.48
2019-04-28T19:23:31.758Z,62.07
2019-04-28T19:26:36.187Z,62.20
2019-04-28T19:29:40.620Z,62.01
2019-04-28T19:32:45.322Z,63.13
2019-04-28T19:35:49.927Z,63.38
2019-04-28T19:39:03.135Z,63.64
2019-04-28T19:42:00.837Z,63.90
2019-04-28T19:45:11.767Z,64.37
2019-04-28T19:48:15.234Z,64.59
2019-04-28T19:51:31.260Z,64.19
2019-04-28T19:54:28.179Z,64.22
2019-04-28T19:57:40.158Z,65.52
2019-04-28T20:00:46.227Z,64.84
2019-04-28T20:03:50.658Z,64.78
2019-04-28T20:06:55.083Z,64.83
2019-04-28T20:09:59.913Z,64.54
2019-04-28T20:13:04.643Z,65.39
2019-04-28T20:16:09.073Z,66.49
2019-04-28T20:19:13.907Z,67.10
2019-04-28T20:22:18.329Z,67.12
2019-04-28T20:25:22.761Z,67.68
2019-04-28T20:28:27.478Z,67.16
2019-04-28T20:31:31.915Z,67.02
2019-04-28T20:34:36.346Z,67.73
2019-04-28T20:37:42.804Z,68.42
2019-04-28T20:41:07.698Z,68.76
2019-04-28T20:44:12.430Z,69.60
2019-04-28T20:47:16.865Z,69.61
2019-04-28T20:50:23.448Z,69.56
2019-04-28T20:53:28.157Z,70.15
2019-04-28T20:56:32.621Z,70.16
2019-04-28T20:59:37.314Z,70.50
2019-04-28T21:02:42.048Z,70.93
2019-04-28T21:05:46.479Z,70.95
2019-04-28T21:08:51.201Z,71.39
2019-04-28T21:11:55.641Z,71.93
2019-04-28T21:15:00.088Z,72.25
2019-04-28T21:18:04.886Z,72.75
2019-04-28T21:21:09.622Z,72.88
2019-04-28T21:24:16.943Z,73.21
2019-04-28T21:27:20.503Z,74.10
2019-04-28T21:30:25.240Z,73.20
2019-04-28T21:33:29.976Z,73.12
2019-04-28T21:36:34.419Z,73.44
2019-04-28T21:39:39.127Z,73.30
2019-04-28T21:43:01.676Z,74.32
2019-04-28T21:46:26.167Z,74.76
2019-04-28T21:49:34.736Z,75.16
2019-04-28T21:52:39.166Z,75.30
2019-04-28T21:55:43.948Z,75.35
2019-04-28T21:58:48.694Z,75.52
2019-04-28T22:01:53.132Z,75.93
2019-04-28T22:04:57.831Z,75.49
2019-04-28T22:08:02.276Z,75.22
2019-04-28T22:11:06.703Z,75.43
2019-04-28T22:14:11.519Z,76.05
2019-04-28T22:17:16.294Z,75.78
2019-04-28T22:20:20.972Z,75.87
2019-04-28T22:23:29.538Z,75.46
2019-04-28T22:26:44.383Z,75.17
2019-04-28T22:29:48.808Z,75.72
2019-04-28T22:32:53.517Z,76.57
2019-04-28T22:35:58.244Z,76.39
2019-04-28T22:39:02.979Z,76.38
2019-04-28T22:42:07.704Z,75.82
2019-04-28T22:45:12.884Z,75.71
2019-04-28T22:48:22.376Z,75.82
2019-04-28T22:51:27.120Z,75.39
2019-04-28T22:54:38.866Z,74.52
2019-04-28T22:57:51.229Z,75.56
2019-04-28T23:01:03.434Z,75.35
2019-04-28T23:04:12.262Z,75.12
2019-04-28T23:07:16.693Z,75.44
2019-04-28T23:10:21.122Z,75.69
2019-04-28T23:13:25.842Z,75.46
2019-04-28T23:16:30.563Z,74.98
2019-04-28T23:19:36.937Z,74.90
2019-04-28T23:22:47.018Z,74.94
2019-04-28T23:25:49.456Z,74.86
2019-04-28T23:28:54.199Z,75.25
2019-04-28T23:31:58.621Z,75.65
2019-04-28T23:35:03.526Z,75.64
2019-04-28T23:38:08.037Z,75.86
2019-04-28T23:41:14.349Z,76.05
2019-04-28T23:44:18.783Z,76.04
2019-04-28T23:47:23.384Z,76.51
2019-04-28T23:50:30.023Z,76.30
2019-04-28T23:53:52.163Z,75.96
2019-04-28T23:56:56.846Z,76.36
